sensor_id;sensor_type;location;lat;lon;timestamp;P1;durP1;ratioP1;P2;durP2;ratioP2
57313;SDS011;53202;50.976;18.216;2022-08-19T00:00:05;8.80;;;7.50;;
57313;SDS011;53202;50.976;18.216;2022-08-19T00:02:34;16.10;;;7.60;;
57313;SDS011;53202;50.976;18.216;2022-08-19T00:05:00;11.30;;;8.20;;
57313;SDS011;53202;50.976;18.216;2022-08-19T00:07:26;9.00;;;7.60;;
57313;SDS011;53202;50.976;18.216;2022-08-19T00:09:52;9.20;;;8.20;;
57313;SDS011;53202;50.976;18.216;2022-08-19T00:12:18;11.70;;;8.50;;
57313;SDS011;53202;50.976;18.216;2022-08-19T00:14:45;13.70;;;8.60;;
57313;SDS011;53202;50.976;18.216;2022-08-19T00:17:11;9.80;;;7.90;;
57313;SDS011;53202;50.976;18.216;2022-08-19T00:19:38;10.60;;;8.20;;
57313;SDS011;53202;50.976;18.216;2022-08-19T00:22:06;18.70;;;8.00;;
57313;SDS011;53202;50.976;18.216;2022-08-19T00:24:33;10.90;;;8.30;;
57313;SDS011;53202;50.976;18.216;2022-08-19T00:27:00;8.30;;;7.40;;
57313;SDS011;53202;50.976;18.216;2022-08-19T00:29:27;10.30;;;8.10;;
57313;SDS011;53202;50.976;18.216;2022-08-19T00:31:53;13.00;;;8.80;;
57313;SDS011;53202;50.976;18.216;2022-08-19T00:34:21;11.60;;;8.40;;
57313;SDS011;53202;50.976;18.216;2022-08-19T00:36:48;21.50;;;8.50;;
57313;SDS011;53202;50.976;18.216;2022-08-19T00:39:15;14.30;;;8.70;;
57313;SDS011;53202;50.976;18.216;2022-08-19T00:41:42;13.10;;;8.60;;
57313;SDS011;53202;50.976;18.216;2022-08-19T00:44:15;14.20;;;8.90;;
57313;SDS011;53202;50.976;18.216;2022-08-19T00:46:46;11.60;;;9.40;;
57313;SDS011;53202;50.976;18.216;2022-08-19T00:49:15;10.90;;;8.20;;
57313;SDS011;53202;50.976;18.216;2022-08-19T00:51:45;10.30;;;8.30;;
57313;SDS011;53202;50.976;18.216;2022-08-19T00:54:15;15.20;;;9.00;;
57313;SDS011;53202;50.976;18.216;2022-08-19T00:56:42;11.90;;;8.80;;
57313;SDS011;53202;50.976;18.216;2022-08-19T00:59:08;12.30;;;8.90;;
57313;SDS011;53202;50.976;18.216;2022-08-19T01:01:35;13.00;;;9.00;;
57313;SDS011;53202;50.976;18.216;2022-08-19T01:04:02;15.60;;;10.80;;
57313;SDS011;53202;50.976;18.216;2022-08-19T01:06:29;10.30;;;8.60;;
57313;SDS011;53202;50.976;18.216;2022-08-19T01:08:58;16.40;;;9.90;;
57313;SDS011;53202;50.976;18.216;2022-08-19T01:11:26;14.00;;;9.40;;
57313;SDS011;53202;50.976;18.216;2022-08-19T01:13:53;13.20;;;8.70;;
57313;SDS011;53202;50.976;18.216;2022-08-19T01:16:22;15.80;;;10.30;;
57313;SDS011;53202;50.976;18.216;2022-08-19T01:18:49;12.20;;;8.90;;
57313;SDS011;53202;50.976;18.216;2022-08-19T01:21:26;11.20;;;9.30;;
57313;SDS011;53202;50.976;18.216;2022-08-19T01:24:05;13.60;;;9.00;;
57313;SDS011;53202;50.976;18.216;2022-08-19T01:26:34;11.40;;;9.80;;
57313;SDS011;53202;50.976;18.216;2022-08-19T01:29:04;10.50;;;9.00;;
57313;SDS011;53202;50.976;18.216;2022-08-19T01:31:33;11.00;;;9.10;;
57313;SDS011;53202;50.976;18.216;2022-08-19T01:34:00;14.30;;;9.80;;
57313;SDS011;53202;50.976;18.216;2022-08-19T01:36:29;11.90;;;9.80;;
57313;SDS011;53202;50.976;18.216;2022-08-19T01:38:57;12.90;;;9.50;;
57313;SDS011;53202;50.976;18.216;2022-08-19T01:41:23;17.10;;;9.90;;
57313;SDS011;53202;50.976;18.216;2022-08-19T01:43:50;13.60;;;10.00;;
57313;SDS011;53202;50.976;18.216;2022-08-19T01:46:17;13.80;;;10.50;;
57313;SDS011;53202;50.976;18.216;2022-08-19T01:48:44;16.50;;;11.00;;
57313;SDS011;53202;50.976;18.216;2022-08-19T01:51:12;14.10;;;10.30;;
57313;SDS011;53202;50.976;18.216;2022-08-19T01:53:39;16.90;;;11.50;;
57313;SDS011;53202;50.976;18.216;2022-08-19T01:56:06;12.50;;;11.10;;
57313;SDS011;53202;50.976;18.216;2022-08-19T01:58:39;12.60;;;9.70;;
57313;SDS011;53202;50.976;18.216;2022-08-19T02:01:07;14.00;;;10.40;;
57313;SDS011;53202;50.976;18.216;2022-08-19T02:03:34;15.80;;;10.60;;
57313;SDS011;53202;50.976;18.216;2022-08-19T02:06:00;11.90;;;9.50;;
57313;SDS011;53202;50.976;18.216;2022-08-19T02:08:28;17.00;;;11.50;;
57313;SDS011;53202;50.976;18.216;2022-08-19T02:10:56;17.00;;;10.20;;
57313;SDS011;53202;50.976;18.216;2022-08-19T02:13:23;16.10;;;10.50;;
57313;SDS011;53202;50.976;18.216;2022-08-19T02:15:50;17.30;;;10.90;;
57313;SDS011;53202;50.976;18.216;2022-08-19T02:18:16;13.10;;;10.40;;
57313;SDS011;53202;50.976;18.216;2022-08-19T02:20:43;13.20;;;10.90;;
57313;SDS011;53202;50.976;18.216;2022-08-19T02:23:11;12.70;;;10.90;;
57313;SDS011;53202;50.976;18.216;2022-08-19T02:25:38;13.50;;;10.30;;
57313;SDS011;53202;50.976;18.216;2022-08-19T02:28:04;18.30;;;11.50;;
57313;SDS011;53202;50.976;18.216;2022-08-19T02:30:30;12.50;;;11.20;;
57313;SDS011;53202;50.976;18.216;2022-08-19T02:32:56;16.50;;;10.90;;
57313;SDS011;53202;50.976;18.216;2022-08-19T02:35:23;16.30;;;11.80;;
57313;SDS011;53202;50.976;18.216;2022-08-19T02:37:49;13.00;;;11.00;;
57313;SDS011;53202;50.976;18.216;2022-08-19T02:40:30;19.70;;;11.20;;
57313;SDS011;53202;50.976;18.216;2022-08-19T02:43:00;15.70;;;11.70;;
57313;SDS011;53202;50.976;18.216;2022-08-19T02:45:31;27.00;;;11.80;;
57313;SDS011;53202;50.976;18.216;2022-08-19T02:47:59;16.60;;;11.60;;
57313;SDS011;53202;50.976;18.216;2022-08-19T02:50:25;13.70;;;11.10;;
57313;SDS011;53202;50.976;18.216;2022-08-19T02:52:51;16.40;;;11.50;;
57313;SDS011;53202;50.976;18.216;2022-08-19T02:55:17;13.80;;;11.80;;
57313;SDS011;53202;50.976;18.216;2022-08-19T02:57:44;13.70;;;11.20;;
57313;SDS011;53202;50.976;18.216;2022-08-19T03:00:10;13.40;;;10.90;;
57313;SDS011;53202;50.976;18.216;2022-08-19T03:02:38;15.20;;;11.50;;
57313;SDS011;53202;50.976;18.216;2022-08-19T03:05:04;15.50;;;11.10;;
57313;SDS011;53202;50.976;18.216;2022-08-19T03:07:32;15.30;;;11.90;;
57313;SDS011;53202;50.976;18.216;2022-08-19T03:09:58;12.00;;;10.80;;
57313;SDS011;53202;50.976;18.216;2022-08-19T03:12:24;16.60;;;12.60;;
57313;SDS011;53202;50.976;18.216;2022-08-19T03:14:50;14.50;;;12.20;;
57313;SDS011;53202;50.976;18.216;2022-08-19T03:17:17;19.70;;;12.70;;
57313;SDS011;53202;50.976;18.216;2022-08-19T03:19:43;20.80;;;13.70;;
57313;SDS011;53202;50.976;18.216;2022-08-19T03:22:09;17.50;;;13.40;;
57313;SDS011;53202;50.976;18.216;2022-08-19T03:24:35;18.60;;;11.90;;
57313;SDS011;53202;50.976;18.216;2022-08-19T03:27:02;20.40;;;13.10;;
57313;SDS011;53202;50.976;18.216;2022-08-19T03:29:30;16.60;;;14.00;;
57313;SDS011;53202;50.976;18.216;2022-08-19T03:31:58;16.80;;;12.70;;
57313;SDS011;53202;50.976;18.216;2022-08-19T03:34:27;20.40;;;12.70;;
57313;SDS011;53202;50.976;18.216;2022-08-19T03:36:55;17.60;;;13.60;;
57313;SDS011;53202;50.976;18.216;2022-08-19T03:39:24;20.60;;;13.60;;
57313;SDS011;53202;50.976;18.216;2022-08-19T03:41:51;18.30;;;13.70;;
57313;SDS011;53202;50.976;18.216;2022-08-19T03:44:22;27.70;;;14.50;;
57313;SDS011;53202;50.976;18.216;2022-08-19T03:46:51;15.20;;;13.60;;
57313;SDS011;53202;50.976;18.216;2022-08-19T03:49:20;17.30;;;13.30;;
57313;SDS011;53202;50.976;18.216;2022-08-19T03:51:51;18.80;;;13.70;;
57313;SDS011;53202;50.976;18.216;2022-08-19T03:54:18;19.30;;;14.20;;
57313;SDS011;53202;50.976;18.216;2022-08-19T03:56:46;14.60;;;12.60;;
57313;SDS011;53202;50.976;18.216;2022-08-19T03:59:15;22.30;;;13.90;;
57313;SDS011;53202;50.976;18.216;2022-08-19T04:01:49;19.60;;;13.20;;
57313;SDS011;53202;50.976;18.216;2022-08-19T04:04:15;21.40;;;14.20;;
57313;SDS011;53202;50.976;18.216;2022-08-19T04:06:41;22.00;;;16.20;;
57313;SDS011;53202;50.976;18.216;2022-08-19T04:09:09;28.70;;;19.70;;
57313;SDS011;53202;50.976;18.216;2022-08-19T04:11:38;17.60;;;14.80;;
57313;SDS011;53202;50.976;18.216;2022-08-19T04:14:07;25.80;;;13.10;;
57313;SDS011;53202;50.976;18.216;2022-08-19T04:16:34;22.30;;;13.40;;
57313;SDS011;53202;50.976;18.216;2022-08-19T04:19:02;19.00;;;12.40;;
57313;SDS011;53202;50.976;18.216;2022-08-19T04:21:29;16.70;;;13.10;;
57313;SDS011;53202;50.976;18.216;2022-08-19T04:23:55;18.90;;;12.80;;
57313;SDS011;53202;50.976;18.216;2022-08-19T04:26:24;15.50;;;12.10;;
57313;SDS011;53202;50.976;18.216;2022-08-19T04:28:53;16.30;;;12.40;;
57313;SDS011;53202;50.976;18.216;2022-08-19T04:31:23;20.30;;;12.50;;
57313;SDS011;53202;50.976;18.216;2022-08-19T04:33:53;18.40;;;12.50;;
57313;SDS011;53202;50.976;18.216;2022-08-19T04:36:24;19.70;;;12.90;;
57313;SDS011;53202;50.976;18.216;2022-08-19T04:38:53;15.00;;;12.80;;
57313;SDS011;53202;50.976;18.216;2022-08-19T04:41:21;18.70;;;12.10;;
57313;SDS011;53202;50.976;18.216;2022-08-19T04:43:58;19.00;;;13.30;;
57313;SDS011;53202;50.976;18.216;2022-08-19T04:46:25;18.00;;;12.10;;
57313;SDS011;53202;50.976;18.216;2022-08-19T04:48:51;16.20;;;11.90;;
57313;SDS011;53202;50.976;18.216;2022-08-19T04:51:19;16.30;;;12.40;;
57313;SDS011;53202;50.976;18.216;2022-08-19T04:53:46;14.30;;;11.40;;
57313;SDS011;53202;50.976;18.216;2022-08-19T04:56:13;22.30;;;11.40;;
57313;SDS011;53202;50.976;18.216;2022-08-19T04:58:41;18.10;;;12.50;;
57313;SDS011;53202;50.976;18.216;2022-08-19T05:01:10;17.70;;;12.00;;
57313;SDS011;53202;50.976;18.216;2022-08-19T05:03:38;17.80;;;12.00;;
57313;SDS011;53202;50.976;18.216;2022-08-19T05:06:05;18.40;;;11.60;;
57313;SDS011;53202;50.976;18.216;2022-08-19T05:08:33;14.10;;;11.10;;
57313;SDS011;53202;50.976;18.216;2022-08-19T05:11:00;13.40;;;10.80;;
57313;SDS011;53202;50.976;18.216;2022-08-19T05:13:26;18.00;;;11.70;;
57313;SDS011;53202;50.976;18.216;2022-08-19T05:15:54;13.90;;;11.70;;
57313;SDS011;53202;50.976;18.216;2022-08-19T05:18:21;15.20;;;11.50;;
57313;SDS011;53202;50.976;18.216;2022-08-19T05:21:04;17.30;;;12.50;;
57313;SDS011;53202;50.976;18.216;2022-08-19T05:23:51;12.70;;;10.70;;
57313;SDS011;53202;50.976;18.216;2022-08-19T05:26:17;17.50;;;11.40;;
57313;SDS011;53202;50.976;18.216;2022-08-19T05:28:43;16.80;;;10.60;;
57313;SDS011;53202;50.976;18.216;2022-08-19T05:31:10;14.50;;;11.00;;
57313;SDS011;53202;50.976;18.216;2022-08-19T05:33:37;15.80;;;10.00;;
57313;SDS011;53202;50.976;18.216;2022-08-19T05:36:05;15.50;;;11.10;;
57313;SDS011;53202;50.976;18.216;2022-08-19T05:38:33;17.00;;;10.60;;
57313;SDS011;53202;50.976;18.216;2022-08-19T05:41:01;14.40;;;10.50;;
57313;SDS011;53202;50.976;18.216;2022-08-19T05:43:33;15.30;;;10.20;;
57313;SDS011;53202;50.976;18.216;2022-08-19T05:45:59;14.60;;;10.70;;
57313;SDS011;53202;50.976;18.216;2022-08-19T05:48:26;15.70;;;10.20;;
57313;SDS011;53202;50.976;18.216;2022-08-19T05:50:53;14.30;;;10.30;;
57313;SDS011;53202;50.976;18.216;2022-08-19T05:53:19;16.20;;;10.30;;
57313;SDS011;53202;50.976;18.216;2022-08-19T05:55:44;16.00;;;9.80;;
57313;SDS011;53202;50.976;18.216;2022-08-19T05:58:10;17.90;;;10.10;;
57313;SDS011;53202;50.976;18.216;2022-08-19T06:00:37;26.50;;;10.20;;
57313;SDS011;53202;50.976;18.216;2022-08-19T06:03:03;14.10;;;9.20;;
57313;SDS011;53202;50.976;18.216;2022-08-19T06:05:30;13.60;;;9.90;;
57313;SDS011;53202;50.976;18.216;2022-08-19T06:07:56;16.50;;;10.70;;
57313;SDS011;53202;50.976;18.216;2022-08-19T06:10:24;19.20;;;10.90;;
57313;SDS011;53202;50.976;18.216;2022-08-19T06:12:52;13.10;;;10.00;;
57313;SDS011;53202;50.976;18.216;2022-08-19T06:15:18;18.60;;;9.50;;
57313;SDS011;53202;50.976;18.216;2022-08-19T06:17:46;16.50;;;9.70;;
57313;SDS011;53202;50.976;18.216;2022-08-19T06:20:13;15.80;;;10.00;;
57313;SDS011;53202;50.976;18.216;2022-08-19T06:22:40;18.50;;;10.20;;
57313;SDS011;53202;50.976;18.216;2022-08-19T06:25:10;17.50;;;9.60;;
57313;SDS011;53202;50.976;18.216;2022-08-19T06:27:37;19.90;;;9.90;;
57313;SDS011;53202;50.976;18.216;2022-08-19T06:30:03;13.00;;;9.70;;
57313;SDS011;53202;50.976;18.216;2022-08-19T06:32:30;13.20;;;9.30;;
57313;SDS011;53202;50.976;18.216;2022-08-19T06:34:57;12.60;;;8.80;;
57313;SDS011;53202;50.976;18.216;2022-08-19T06:37:23;20.20;;;9.10;;
57313;SDS011;53202;50.976;18.216;2022-08-19T06:39:49;13.80;;;9.10;;
57313;SDS011;53202;50.976;18.216;2022-08-19T06:42:16;14.60;;;8.60;;
57313;SDS011;53202;50.976;18.216;2022-08-19T06:44:45;12.10;;;8.70;;
57313;SDS011;53202;50.976;18.216;2022-08-19T06:47:14;15.00;;;8.40;;
57313;SDS011;53202;50.976;18.216;2022-08-19T06:49:42;14.10;;;7.50;;
57313;SDS011;53202;50.976;18.216;2022-08-19T06:52:09;12.80;;;8.10;;
57313;SDS011;53202;50.976;18.216;2022-08-19T06:54:37;15.70;;;8.70;;
57313;SDS011;53202;50.976;18.216;2022-08-19T06:57:04;16.90;;;8.40;;
57313;SDS011;53202;50.976;18.216;2022-08-19T06:59:32;11.70;;;8.80;;
57313;SDS011;53202;50.976;18.216;2022-08-19T07:01:59;18.30;;;8.30;;
57313;SDS011;53202;50.976;18.216;2022-08-19T07:04:30;24.00;;;9.10;;
57313;SDS011;53202;50.976;18.216;2022-08-19T07:06:59;19.50;;;9.00;;
57313;SDS011;53202;50.976;18.216;2022-08-19T07:09:28;19.00;;;8.90;;
57313;SDS011;53202;50.976;18.216;2022-08-19T07:11:54;15.70;;;8.30;;
57313;SDS011;53202;50.976;18.216;2022-08-19T07:14:23;14.90;;;9.10;;
57313;SDS011;53202;50.976;18.216;2022-08-19T07:16:51;17.10;;;8.20;;
57313;SDS011;53202;50.976;18.216;2022-08-19T07:19:22;16.90;;;7.40;;
57313;SDS011;53202;50.976;18.216;2022-08-19T07:21:52;13.60;;;7.80;;
57313;SDS011;53202;50.976;18.216;2022-08-19T07:24:19;10.60;;;7.50;;
57313;SDS011;53202;50.976;18.216;2022-08-19T07:26:49;19.20;;;7.80;;
57313;SDS011;53202;50.976;18.216;2022-08-19T07:29:17;12.10;;;7.30;;
57313;SDS011;53202;50.976;18.216;2022-08-19T07:31:44;15.90;;;7.00;;
57313;SDS011;53202;50.976;18.216;2022-08-19T07:34:11;15.90;;;7.60;;
57313;SDS011;53202;50.976;18.216;2022-08-19T07:36:41;13.40;;;7.30;;
57313;SDS011;53202;50.976;18.216;2022-08-19T07:39:12;15.70;;;7.20;;
57313;SDS011;53202;50.976;18.216;2022-08-19T07:41:40;16.10;;;7.60;;
57313;SDS011;53202;50.976;18.216;2022-08-19T07:44:07;12.30;;;7.10;;
57313;SDS011;53202;50.976;18.216;2022-08-19T07:46:34;18.50;;;7.20;;
57313;SDS011;53202;50.976;18.216;2022-08-19T07:49:03;8.10;;;6.80;;
57313;SDS011;53202;50.976;18.216;2022-08-19T07:51:30;13.80;;;6.90;;
57313;SDS011;53202;50.976;18.216;2022-08-19T07:53:56;14.70;;;7.10;;
57313;SDS011;53202;50.976;18.216;2022-08-19T07:56:23;13.00;;;7.20;;
57313;SDS011;53202;50.976;18.216;2022-08-19T07:58:50;18.70;;;7.60;;
57313;SDS011;53202;50.976;18.216;2022-08-19T08:01:19;11.40;;;6.70;;
57313;SDS011;53202;50.976;18.216;2022-08-19T08:03:49;14.90;;;8.10;;
57313;SDS011;53202;50.976;18.216;2022-08-19T08:06:32;16.30;;;7.20;;
57313;SDS011;53202;50.976;18.216;2022-08-19T08:09:12;12.90;;;7.40;;
57313;SDS011;53202;50.976;18.216;2022-08-19T08:11:48;14.60;;;7.30;;
57313;SDS011;53202;50.976;18.216;2022-08-19T08:14:22;15.20;;;7.60;;
57313;SDS011;53202;50.976;18.216;2022-08-19T08:16:51;17.40;;;7.30;;
57313;SDS011;53202;50.976;18.216;2022-08-19T08:19:19;14.00;;;7.70;;
57313;SDS011;53202;50.976;18.216;2022-08-19T08:21:47;20.10;;;9.40;;
57313;SDS011;53202;50.976;18.216;2022-08-19T08:24:14;15.60;;;7.10;;
57313;SDS011;53202;50.976;18.216;2022-08-19T08:26:40;20.60;;;7.60;;
57313;SDS011;53202;50.976;18.216;2022-08-19T08:29:07;20.10;;;7.70;;
57313;SDS011;53202;50.976;18.216;2022-08-19T08:31:35;12.30;;;7.10;;
57313;SDS011;53202;50.976;18.216;2022-08-19T08:34:02;27.30;;;8.10;;
57313;SDS011;53202;50.976;18.216;2022-08-19T08:36:28;15.80;;;7.50;;
57313;SDS011;53202;50.976;18.216;2022-08-19T08:38:54;13.40;;;6.70;;
57313;SDS011;53202;50.976;18.216;2022-08-19T08:41:28;16.70;;;6.80;;
57313;SDS011;53202;50.976;18.216;2022-08-19T08:43:58;23.70;;;7.90;;
57313;SDS011;53202;50.976;18.216;2022-08-19T08:46:32;13.90;;;6.80;;
57313;SDS011;53202;50.976;18.216;2022-08-19T08:49:17;18.40;;;8.10;;
57313;SDS011;53202;50.976;18.216;2022-08-19T08:51:54;21.80;;;8.00;;
57313;SDS011;53202;50.976;18.216;2022-08-19T08:54:29;19.50;;;7.70;;
57313;SDS011;53202;50.976;18.216;2022-08-19T08:57:07;20.00;;;8.00;;
57313;SDS011;53202;50.976;18.216;2022-08-19T08:59:39;13.00;;;7.90;;
57313;SDS011;53202;50.976;18.216;2022-08-19T09:02:06;15.40;;;7.10;;
57313;SDS011;53202;50.976;18.216;2022-08-19T09:04:34;19.40;;;12.00;;
57313;SDS011;53202;50.976;18.216;2022-08-19T09:07:09;26.30;;;12.00;;
57313;SDS011;53202;50.976;18.216;2022-08-19T09:09:52;12.70;;;6.60;;
57313;SDS011;53202;50.976;18.216;2022-08-19T09:15:29;23.50;;;9.30;;
57313;SDS011;53202;50.976;18.216;2022-08-19T09:18:01;18.60;;;7.70;;
57313;SDS011;53202;50.976;18.216;2022-08-19T09:20:30;20.10;;;8.00;;
57313;SDS011;53202;50.976;18.216;2022-08-19T09:22:57;27.30;;;9.70;;
57313;SDS011;53202;50.976;18.216;2022-08-19T09:25:24;23.70;;;7.40;;
57313;SDS011;53202;50.976;18.216;2022-08-19T09:27:51;13.60;;;6.70;;
57313;SDS011;53202;50.976;18.216;2022-08-19T09:30:21;16.80;;;7.00;;
57313;SDS011;53202;50.976;18.216;2022-08-19T09:32:49;17.30;;;6.40;;
57313;SDS011;53202;50.976;18.216;2022-08-19T09:35:19;13.10;;;6.60;;
57313;SDS011;53202;50.976;18.216;2022-08-19T09:37:48;25.30;;;6.70;;
57313;SDS011;53202;50.976;18.216;2022-08-19T09:40:16;15.70;;;6.90;;
57313;SDS011;53202;50.976;18.216;2022-08-19T09:42:43;21.00;;;6.70;;
57313;SDS011;53202;50.976;18.216;2022-08-19T09:45:12;15.10;;;6.00;;
57313;SDS011;53202;50.976;18.216;2022-08-19T09:47:48;15.20;;;6.30;;
57313;SDS011;53202;50.976;18.216;2022-08-19T09:50:16;16.20;;;7.80;;
57313;SDS011;53202;50.976;18.216;2022-08-19T09:52:43;20.20;;;8.30;;
57313;SDS011;53202;50.976;18.216;2022-08-19T09:55:10;25.40;;;7.50;;
57313;SDS011;53202;50.976;18.216;2022-08-19T09:57:37;23.70;;;8.50;;
57313;SDS011;53202;50.976;18.216;2022-08-19T10:00:04;16.60;;;7.70;;
57313;SDS011;53202;50.976;18.216;2022-08-19T10:02:33;18.20;;;6.50;;
57313;SDS011;53202;50.976;18.216;2022-08-19T10:04:59;25.00;;;8.10;;
57313;SDS011;53202;50.976;18.216;2022-08-19T10:07:41;24.80;;;7.80;;
57313;SDS011;53202;50.976;18.216;2022-08-19T10:10:07;18.40;;;7.40;;
57313;SDS011;53202;50.976;18.216;2022-08-19T10:12:34;20.90;;;7.60;;
57313;SDS011;53202;50.976;18.216;2022-08-19T10:15:03;15.60;;;7.30;;
57313;SDS011;53202;50.976;18.216;2022-08-19T10:17:31;20.60;;;7.20;;
57313;SDS011;53202;50.976;18.216;2022-08-19T10:19:59;15.40;;;6.10;;
57313;SDS011;53202;50.976;18.216;2022-08-19T10:22:25;23.80;;;7.40;;
57313;SDS011;53202;50.976;18.216;2022-08-19T10:24:51;13.60;;;5.80;;
57313;SDS011;53202;50.976;18.216;2022-08-19T10:27:17;20.60;;;6.50;;
57313;SDS011;53202;50.976;18.216;2022-08-19T10:29:43;12.50;;;7.60;;
57313;SDS011;53202;50.976;18.216;2022-08-19T10:32:09;16.00;;;6.30;;
57313;SDS011;53202;50.976;18.216;2022-08-19T10:34:36;16.20;;;5.70;;
57313;SDS011;53202;50.976;18.216;2022-08-19T10:37:03;27.80;;;6.70;;
57313;SDS011;53202;50.976;18.216;2022-08-19T10:39:32;10.30;;;5.70;;
57313;SDS011;53202;50.976;18.216;2022-08-19T10:41:59;14.30;;;6.70;;
57313;SDS011;53202;50.976;18.216;2022-08-19T10:44:31;12.30;;;6.40;;
57313;SDS011;53202;50.976;18.216;2022-08-19T10:46:58;17.30;;;6.30;;
57313;SDS011;53202;50.976;18.216;2022-08-19T10:49:25;15.40;;;7.20;;
57313;SDS011;53202;50.976;18.216;2022-08-19T10:51:51;21.60;;;7.70;;
57313;SDS011;53202;50.976;18.216;2022-08-19T10:54:32;18.00;;;7.00;;
57313;SDS011;53202;50.976;18.216;2022-08-19T10:57:18;17.40;;;6.20;;
57313;SDS011;53202;50.976;18.216;2022-08-19T10:59:44;26.50;;;6.60;;
57313;SDS011;53202;50.976;18.216;2022-08-19T11:02:10;17.90;;;6.60;;
57313;SDS011;53202;50.976;18.216;2022-08-19T11:04:37;18.00;;;6.60;;
57313;SDS011;53202;50.976;18.216;2022-08-19T11:07:05;22.00;;;8.50;;
57313;SDS011;53202;50.976;18.216;2022-08-19T11:09:31;13.50;;;7.50;;
57313;SDS011;53202;50.976;18.216;2022-08-19T11:12:04;18.90;;;7.50;;
57313;SDS011;53202;50.976;18.216;2022-08-19T11:14:31;18.10;;;7.10;;
57313;SDS011;53202;50.976;18.216;2022-08-19T11:16:59;11.20;;;7.50;;
57313;SDS011;53202;50.976;18.216;2022-08-19T11:19:26;22.60;;;8.50;;
57313;SDS011;53202;50.976;18.216;2022-08-19T11:21:52;22.20;;;7.70;;
57313;SDS011;53202;50.976;18.216;2022-08-19T11:24:22;17.10;;;7.30;;
57313;SDS011;53202;50.976;18.216;2022-08-19T11:26:50;22.10;;;8.00;;
57313;SDS011;53202;50.976;18.216;2022-08-19T11:29:18;20.40;;;8.90;;
57313;SDS011;53202;50.976;18.216;2022-08-19T11:31:46;14.90;;;7.30;;
57313;SDS011;53202;50.976;18.216;2022-08-19T11:34:16;19.90;;;8.30;;
57313;SDS011;53202;50.976;18.216;2022-08-19T11:36:45;12.60;;;7.40;;
57313;SDS011;53202;50.976;18.216;2022-08-19T11:39:17;12.90;;;7.30;;
57313;SDS011;53202;50.976;18.216;2022-08-19T11:41:45;17.50;;;8.20;;
57313;SDS011;53202;50.976;18.216;2022-08-19T11:44:11;26.90;;;8.80;;
57313;SDS011;53202;50.976;18.216;2022-08-19T11:46:39;12.80;;;7.50;;
57313;SDS011;53202;50.976;18.216;2022-08-19T11:49:07;16.30;;;8.20;;
57313;SDS011;53202;50.976;18.216;2022-08-19T11:51:35;14.40;;;7.90;;
57313;SDS011;53202;50.976;18.216;2022-08-19T11:54:01;24.80;;;8.50;;
57313;SDS011;53202;50.976;18.216;2022-08-19T11:56:29;17.20;;;6.80;;
57313;SDS011;53202;50.976;18.216;2022-08-19T11:58:55;14.00;;;7.60;;
57313;SDS011;53202;50.976;18.216;2022-08-19T12:01:24;16.70;;;8.10;;
57313;SDS011;53202;50.976;18.216;2022-08-19T12:03:51;13.90;;;8.10;;
57313;SDS011;53202;50.976;18.216;2022-08-19T12:06:20;17.80;;;8.70;;
57313;SDS011;53202;50.976;18.216;2022-08-19T12:08:54;16.60;;;7.90;;
57313;SDS011;53202;50.976;18.216;2022-08-19T12:11:22;12.80;;;8.20;;
57313;SDS011;53202;50.976;18.216;2022-08-19T12:13:48;16.50;;;8.30;;
57313;SDS011;53202;50.976;18.216;2022-08-19T12:16:19;13.90;;;8.70;;
57313;SDS011;53202;50.976;18.216;2022-08-19T12:18:48;13.30;;;8.30;;
57313;SDS011;53202;50.976;18.216;2022-08-19T12:21:18;18.80;;;7.80;;
57313;SDS011;53202;50.976;18.216;2022-08-19T12:23:47;18.20;;;7.90;;
57313;SDS011;53202;50.976;18.216;2022-08-19T12:26:15;14.80;;;7.80;;
57313;SDS011;53202;50.976;18.216;2022-08-19T12:28:42;16.90;;;7.50;;
57313;SDS011;53202;50.976;18.216;2022-08-19T12:31:08;13.30;;;7.80;;
57313;SDS011;53202;50.976;18.216;2022-08-19T12:33:37;16.40;;;8.30;;
57313;SDS011;53202;50.976;18.216;2022-08-19T12:36:05;15.40;;;8.30;;
57313;SDS011;53202;50.976;18.216;2022-08-19T12:38:33;15.30;;;8.70;;
57313;SDS011;53202;50.976;18.216;2022-08-19T12:41:00;15.30;;;8.00;;
57313;SDS011;53202;50.976;18.216;2022-08-19T12:43:28;13.90;;;8.00;;
57313;SDS011;53202;50.976;18.216;2022-08-19T12:45:55;12.60;;;7.90;;
57313;SDS011;53202;50.976;18.216;2022-08-19T12:48:21;18.10;;;7.60;;
57313;SDS011;53202;50.976;18.216;2022-08-19T12:50:47;13.80;;;7.20;;
57313;SDS011;53202;50.976;18.216;2022-08-19T12:53:13;19.70;;;8.00;;
57313;SDS011;53202;50.976;18.216;2022-08-19T12:55:41;19.10;;;9.00;;
57313;SDS011;53202;50.976;18.216;2022-08-19T12:58:08;18.00;;;8.80;;
57313;SDS011;53202;50.976;18.216;2022-08-19T13:00:35;17.00;;;8.60;;
57313;SDS011;53202;50.976;18.216;2022-08-19T13:03:01;22.70;;;7.50;;
57313;SDS011;53202;50.976;18.216;2022-08-19T13:05:30;12.80;;;7.90;;
57313;SDS011;53202;50.976;18.216;2022-08-19T13:07:59;13.50;;;7.30;;
57313;SDS011;53202;50.976;18.216;2022-08-19T13:10:27;14.30;;;6.80;;
57313;SDS011;53202;50.976;18.216;2022-08-19T13:13:00;14.00;;;7.60;;
57313;SDS011;53202;50.976;18.216;2022-08-19T13:15:32;15.10;;;8.00;;
57313;SDS011;53202;50.976;18.216;2022-08-19T13:18:00;13.00;;;8.60;;
57313;SDS011;53202;50.976;18.216;2022-08-19T13:20:26;14.90;;;8.50;;
57313;SDS011;53202;50.976;18.216;2022-08-19T13:22:53;15.00;;;8.30;;
57313;SDS011;53202;50.976;18.216;2022-08-19T13:25:20;13.10;;;7.80;;
57313;SDS011;53202;50.976;18.216;2022-08-19T13:27:46;14.50;;;8.60;;
57313;SDS011;53202;50.976;18.216;2022-08-19T13:30:14;11.30;;;8.90;;
57313;SDS011;53202;50.976;18.216;2022-08-19T13:33:01;16.00;;;7.80;;
57313;SDS011;53202;50.976;18.216;2022-08-19T13:35:48;11.70;;;8.30;;
57313;SDS011;53202;50.976;18.216;2022-08-19T13:38:17;16.30;;;7.70;;
57313;SDS011;53202;50.976;18.216;2022-08-19T13:40:46;14.50;;;7.60;;
57313;SDS011;53202;50.976;18.216;2022-08-19T13:43:12;16.60;;;8.50;;
57313;SDS011;53202;50.976;18.216;2022-08-19T13:45:39;22.30;;;8.00;;
57313;SDS011;53202;50.976;18.216;2022-08-19T13:48:05;20.90;;;8.50;;
57313;SDS011;53202;50.976;18.216;2022-08-19T13:50:34;10.10;;;7.80;;
57313;SDS011;53202;50.976;18.216;2022-08-19T13:53:04;18.40;;;8.00;;
57313;SDS011;53202;50.976;18.216;2022-08-19T13:55:30;16.80;;;7.50;;
57313;SDS011;53202;50.976;18.216;2022-08-19T13:57:57;15.40;;;7.30;;
57313;SDS011;53202;50.976;18.216;2022-08-19T14:00:27;17.80;;;8.20;;
57313;SDS011;53202;50.976;18.216;2022-08-19T14:02:54;17.80;;;7.70;;
57313;SDS011;53202;50.976;18.216;2022-08-19T14:05:21;16.80;;;8.10;;
57313;SDS011;53202;50.976;18.216;2022-08-19T14:07:47;19.50;;;7.60;;
57313;SDS011;53202;50.976;18.216;2022-08-19T14:10:13;17.20;;;7.90;;
57313;SDS011;53202;50.976;18.216;2022-08-19T14:12:40;13.20;;;8.90;;
57313;SDS011;53202;50.976;18.216;2022-08-19T14:15:07;15.10;;;8.30;;
57313;SDS011;53202;50.976;18.216;2022-08-19T14:17:34;17.30;;;8.70;;
57313;SDS011;53202;50.976;18.216;2022-08-19T14:20:02;15.00;;;8.30;;
57313;SDS011;53202;50.976;18.216;2022-08-19T14:22:34;26.20;;;9.10;;
57313;SDS011;53202;50.976;18.216;2022-08-19T14:25:03;19.10;;;8.50;;
57313;SDS011;53202;50.976;18.216;2022-08-19T14:27:32;17.90;;;14.40;;